메인 페이지
METAR-TAF:

METAR-TAF

공항 :

Sogndal, 노르웨이

위도: 61-09N, 경도: 007-08E, 고도: 49m

현재 날씨관측

예보는 50분 전, 03:20시(UTC)에 발표되었습니다.
여러 방향의 바람 1kt
온도 17°C
습도 72%
기압 1010 hPa
시정 10km 이상

METAR: ENSG 210320Z AUTO VRB01KT 9999 FEW118/// 17/12 Q1010 RMK WIND 3806FT 10017KT

시각: 06:10 (04:10 UTC)

예보

예보는 20 시간 10분 전, 08:00시(UTC)에 발표되었습니다.
예보 대상 시간: 20일 09시부터 20일 15시까지 (UTC)
동북동7kt
시정 10km 이상
1500m 미만 상공 구름 및 적란운 없음

TAF: ENSG 200800Z 2009/2015 07007KT CAVOK

4,000개 이상의 공항 관측 자료 및 예보 (METAR 및 TAF 보고).

지도상에서 검색 가능한 기상관측소가 노란 점과 빨간 점으로 표시되어 있습니다.

기상관측소 명을 보려면 표시 위로 마우스를 이동하세요.

날씨 관측과 예보를 보려면 클릭하세요.

지도 변경 : 확대하려면 엑스 표시가 있는 녹색 버튼, 축소하려면 빼기 표시가 있는 녹색 버튼, 다음 페이지의 지도를 보려면 녹색 화살표를 클릭하세요.


METAR-TAF: